Time;durP1;ratioP1;P1;durP2;ratioP2;P2;SDS_P1;SDS_P2;PMS_P1;PMS_P2;Temp;Humidity;BMP_temperature;BMP_pressure;BME280_temperature;BME280_humidity;BME280_pressure;Samples;Min_cycle;Max_cycle;Signal;HPM_P1;HPM_P2
2022/03/29 00:01:16;;;;;;;49.80;20.38;;;;;;;8.14;75.89;99853.19;5065379;28;20400;-68
2022/03/29 00:03:41;;;;;;;50.20;19.02;;;;;;;8.11;75.76;99848.16;5052549;28;20035;-67
2022/03/29 00:06:06;;;;;;;47.22;18.13;;;;;;;8.07;76.48;99843.25;5071128;28;20504;-67
2022/03/29 00:08:32;;;;;;;43.28;18.52;;;;;;;8.02;76.44;99835.72;5070853;28;20468;-69
2022/03/29 00:10:57;;;;;;;50.45;20.95;;;;;;;7.98;76.93;99842.91;5043237;28;20032;-66
2022/03/29 00:13:23;;;;;;;44.05;19.88;;;;;;;7.90;77.10;99829.50;5070105;28;20131;-67
2022/03/29 00:15:48;;;;;;;48.72;19.75;;;;;;;7.85;77.54;99828.94;5070495;28;20058;-64
2022/03/29 00:18:14;;;;;;;52.17;20.13;;;;;;;7.82;77.67;99829.13;5070434;28;20115;-66
2022/03/29 00:20:39;;;;;;;60.25;21.40;;;;;;;7.75;77.93;99825.25;5071329;28;20098;-67
2022/03/29 00:23:05;;;;;;;53.88;22.15;;;;;;;7.71;78.22;99826.34;5070216;28;20029;-66
2022/03/29 00:25:32;;;;;;;60.80;21.77;;;;;;;7.68;78.26;99819.56;5052685;28;20028;-66
2022/03/29 00:27:57;;;;;;;53.63;20.65;;;;;;;7.65;78.70;99824.13;5071114;28;20035;-65
2022/03/29 00:30:23;;;;;;;51.50;21.75;;;;;;;7.59;78.87;99817.50;5069567;28;20107;-66
2022/03/29 00:32:48;;;;;;;46.10;18.75;;;;;;;7.55;79.05;99823.84;5070357;28;20036;-65
2022/03/29 00:35:13;;;;;;;53.50;22.05;;;;;;;7.50;79.71;99818.09;5066367;28;20089;-66
2022/03/29 00:37:40;;;;;;;56.63;20.70;;;;;;;7.47;79.61;99819.13;5081310;22;20524;-71
2022/03/29 00:40:07;;;;;;;62.03;22.77;;;;;;;7.46;79.71;99820.06;5054892;28;20111;-69
2022/03/29 00:42:33;;;;;;;58.97;22.08;;;;;;;7.40;79.69;99814.38;5072141;28;20043;-70
2022/03/29 00:44:58;;;;;;;55.75;22.67;;;;;;;7.28;80.31;99813.38;5071800;28;20115;-69
2022/03/29 00:47:24;;;;;;;60.00;21.17;;;;;;;7.19;80.52;99817.38;5071869;28;20033;-71
2022/03/29 00:49:49;;;;;;;52.42;22.00;;;;;;;7.17;80.67;99826.22;5052541;28;20549;-70
2022/03/29 00:52:15;;;;;;;54.28;21.50;;;;;;;7.09;81.60;99818.84;5053361;28;20033;-70
2022/03/29 00:54:41;;;;;;;61.33;23.67;;;;;;;7.07;81.74;99817.25;5034178;28;20081;-70
2022/03/29 00:57:07;;;;;;;51.50;22.27;;;;;;;7.03;81.54;99814.00;5053811;28;20037;-70
2022/03/29 00:59:32;;;;;;;58.97;22.85;;;;;;;7.03;82.04;99808.78;5050796;28;20164;-71
2022/03/29 01:01:58;;;;;;;55.10;21.90;;;;;;;7.02;81.94;99809.72;5050228;28;20479;-71
2022/03/29 01:04:29;;;;;;;60.83;23.05;;;;;;;7.02;81.81;99804.50;5049173;28;20017;-71
2022/03/29 01:06:59;;;;;;;53.55;22.17;;;;;;;6.95;82.39;99801.44;5052743;28;20021;-71
2022/03/29 01:09:29;;;;;;;66.15;23.48;;;;;;;6.93;82.30;99797.22;5034870;28;20613;-72
2022/03/29 01:11:55;;;;;;;61.95;21.98;;;;;;;6.89;82.59;99795.72;5051828;28;20044;-71
2022/03/29 01:14:21;;;;;;;61.00;23.30;;;;;;;6.87;82.74;99789.78;5048699;28;20101;-71
2022/03/29 01:19:31;;;;;;;53.70;22.63;;;;;;;6.83;82.98;99788.31;5051128;28;20074;-71
2022/03/29 01:21:57;;;;;;;58.05;22.65;;;;;;;6.83;82.88;99796.94;5051016;28;20017;-72
2022/03/29 01:24:25;;;;;;;58.17;24.10;;;;;;;6.81;82.96;99788.38;5052901;28;20039;-70
2022/03/29 01:26:52;;;;;;;60.05;23.70;;;;;;;6.79;82.61;99780.66;5049942;28;20060;-71
2022/03/29 01:29:18;;;;;;;62.28;25.02;;;;;;;6.81;83.34;99777.94;5049899;28;20036;-71
2022/03/29 01:31:43;;;;;;;55.00;23.13;;;;;;;6.76;83.44;99775.63;5050159;28;20120;-69
2022/03/29 01:34:10;;;;;;;56.15;22.83;;;;;;;6.74;83.26;99780.06;5050496;28;20025;-71
2022/03/29 01:36:35;;;;;;;57.58;23.17;;;;;;;6.75;83.51;99773.13;5052386;28;20040;-71
2022/03/29 01:39:01;;;;;;;60.83;25.00;;;;;;;6.80;83.12;99776.28;5052674;28;20502;-71
2022/03/29 01:41:27;;;;;;;62.47;23.23;;;;;;;6.86;83.05;99781.13;5049843;28;20051;-72
2022/03/29 01:43:52;;;;;;;59.70;23.42;;;;;;;6.89;82.34;99775.72;5051359;28;20814;-71
2022/03/29 01:46:18;;;;;;;58.47;23.77;;;;;;;6.94;82.34;99772.88;5049858;28;20047;-71
2022/03/29 01:48:43;;;;;;;64.38;25.23;;;;;;;6.93;82.40;99765.94;5049400;28;20029;-70
2022/03/29 01:51:10;;;;;;;55.53;24.05;;;;;;;6.95;82.55;99764.09;5052222;28;20029;-71
2022/03/29 01:53:37;;;;;;;62.72;24.67;;;;;;;6.98;82.21;99764.75;5030673;28;20120;-71
2022/03/29 01:56:02;;;;;;;62.45;24.08;;;;;;;7.03;82.02;99767.06;5047588;28;20036;-71
2022/03/29 01:58:31;;;;;;;53.50;22.35;;;;;;;7.06;81.90;99761.69;5049652;28;20017;-70
2022/03/29 02:00:57;;;;;;;61.65;25.63;;;;;;;7.07;82.15;99767.72;5046136;28;20041;-71
2022/03/29 02:03:22;;;;;;;67.65;25.60;;;;;;;7.09;81.79;99761.50;5041479;28;20032;-71
2022/03/29 02:05:48;;;;;;;57.83;25.45;;;;;;;7.11;81.98;99758.78;5049346;28;20053;-71
2022/03/29 02:08:14;;;;;;;65.97;26.25;;;;;;;7.16;82.18;99762.81;5048947;28;20116;-69
2022/03/29 02:10:40;;;;;;;66.18;26.80;;;;;;;7.12;82.61;99752.63;5048967;28;20111;-70
2022/03/29 02:13:09;;;;;;;64.60;25.52;;;;;;;7.16;82.36;99757.59;5049875;28;20032;-71
2022/03/29 02:15:34;;;;;;;69.13;26.10;;;;;;;7.18;82.62;99755.72;5017770;28;20033;-70
2022/03/29 02:18:00;;;;;;;57.85;26.38;;;;;;;7.18;82.56;99745.28;5030749;28;20028;-70
2022/03/29 02:20:26;;;;;;;63.80;27.83;;;;;;;7.21;82.25;99755.53;5049513;28;20124;-70
2022/03/29 02:22:51;;;;;;;61.85;27.30;;;;;;;7.20;82.16;99748.66;5048993;28;20029;-70
2022/03/29 02:25:17;;;;;;;71.00;29.23;;;;;;;7.17;82.81;99746.22;5047781;28;20091;-70
2022/03/29 02:27:44;;;;;;;71.15;28.90;;;;;;;7.02;83.32;99739.34;5049088;28;20123;-70
2022/03/29 02:30:12;;;;;;;71.72;29.48;;;;;;;6.95;83.76;99736.25;5046984;28;20033;-70
2022/03/29 02:32:38;;;;;;;61.30;28.75;;;;;;;6.96;83.87;99744.91;5052199;28;20064;-70
2022/03/29 02:35:04;;;;;;;64.88;27.50;;;;;;;7.01;83.87;99735.91;5045489;28;20064;-70
2022/03/29 02:37:29;;;;;;;63.72;28.70;;;;;;;7.04;83.82;99740.06;5052556;28;20468;-70
2022/03/29 02:39:55;;;;;;;68.10;28.35;;;;;;;7.06;83.82;99732.16;5052730;28;20055;-71
2022/03/29 02:42:20;;;;;;;70.82;29.08;;;;;;;7.04;83.67;99727.03;5050546;28;20089;-71
2022/03/29 02:44:46;;;;;;;68.28;30.10;;;;;;;6.99;84.46;99735.16;5032475;28;20051;-70
2022/03/29 02:47:11;;;;;;;66.32;29.42;;;;;;;6.98;83.74;99730.88;5065243;28;20033;-70
2022/03/29 02:49:37;;;;;;;65.00;30.33;;;;;;;7.02;83.44;99726.31;5055890;28;20080;-71
2022/03/29 02:52:04;;;;;;;73.45;32.38;;;;;;;7.04;83.28;99727.03;5053735;28;20035;-70
2022/03/29 02:54:29;;;;;;;69.80;31.13;;;;;;;7.03;82.77;99731.41;5050138;28;20079;-70
2022/03/29 02:56:55;;;;;;;69.10;31.63;;;;;;;7.00;83.27;99723.78;5051329;28;20036;-73
2022/03/29 02:59:20;;;;;;;77.07;31.08;;;;;;;6.96;83.00;99718.84;5051920;28;20029;-72
2022/03/29 03:01:45;;;;;;;65.68;31.10;;;;;;;6.99;82.72;99721.28;5053493;28;20041;-72
2022/03/29 03:04:13;;;;;;;65.90;31.02;;;;;;;7.00;82.86;99720.34;5051744;28;20025;-72
2022/03/29 03:06:40;;;;;;;65.32;31.23;;;;;;;7.05;82.91;99715.69;5050742;28;20549;-72
2022/03/29 03:09:05;;;;;;;70.40;31.73;;;;;;;7.08;82.39;99710.28;5049164;28;20069;-72
2022/03/29 03:11:30;;;;;;;74.75;33.08;;;;;;;7.07;82.72;99705.16;5034081;28;20068;-72
2022/03/29 03:13:56;;;;;;;67.43;30.95;;;;;;;6.99;83.29;99706.47;5049480;28;20517;-72
2022/03/29 03:16:21;;;;;;;80.05;34.20;;;;;;;7.03;83.23;99705.34;5055049;28;20020;-72
2022/03/29 03:18:46;;;;;;;69.85;31.63;;;;;;;7.02;82.90;99705.47;5058060;28;20270;-72
2022/03/29 03:21:12;;;;;;;71.80;30.15;;;;;;;7.00;82.77;99713.34;5054937;28;20028;-70
2022/03/29 03:23:38;;;;;;;72.35;31.67;;;;;;;7.00;83.05;99710.75;5051736;28;20043;-72
2022/03/29 03:26:03;;;;;;;72.35;29.17;;;;;;;6.99;82.33;99706.47;5052190;28;20120;-72
2022/03/29 03:28:28;;;;;;;69.03;29.52;;;;;;;6.93;82.84;99698.19;5051970;28;20025;-69
2022/03/29 03:30:54;;;;;;;58.58;26.45;;;;;;;6.84;81.95;99701.38;5049029;28;20025;-72
2022/03/29 03:33:20;;;;;;;51.67;24.83;;;;;;;6.57;81.76;99701.28;5050227;28;20503;-71
2022/03/29 03:35:45;;;;;;;52.13;24.67;;;;;;;6.40;82.67;99695.28;5051628;28;20071;-71
2022/03/29 03:38:11;;;;;;;55.47;24.92;;;;;;;6.41;83.09;99696.13;5051685;28;20388;-71
2022/03/29 03:40:36;;;;;;;60.30;25.25;;;;;;;6.36;83.28;99696.41;5032784;28;20031;-71
2022/03/29 03:43:03;;;;;;;47.40;23.35;;;;;;;6.40;83.15;99694.44;5038003;28;20072;-70
2022/03/29 03:45:28;;;;;;;53.65;22.80;;;;;;;6.39;83.23;99701.44;5049826;28;20029;-71
2022/03/29 03:47:54;;;;;;;55.05;24.90;;;;;;;6.41;83.62;99699.56;5066807;28;20044;-72
2022/03/29 03:50:20;;;;;;;54.78;25.00;;;;;;;6.42;82.90;99693.44;5071258;28;20032;-71
2022/03/29 03:52:45;;;;;;;62.83;27.88;;;;;;;6.44;83.28;99696.78;5071907;28;20144;-70
2022/03/29 03:55:10;;;;;;;58.47;26.92;;;;;;;6.46;83.12;99700.13;5045509;28;20036;-71
2022/03/29 03:57:36;;;;;;;58.47;26.50;;;;;;;6.37;83.21;99697.22;5062670;28;20060;-72
2022/03/29 04:00:03;;;;;;;51.10;26.25;;;;;;;6.37;83.31;99692.84;5061475;28;20072;-72
2022/03/29 04:02:28;;;;;;;57.40;26.52;;;;;;;6.44;83.37;99693.34;5041609;28;20465;-72
2022/03/29 04:04:53;;;;;;;53.25;23.95;;;;;;;6.50;82.38;99693.81;5058640;28;20033;-73
2022/03/29 04:07:19;;;;;;;48.80;23.15;;;;;;;6.46;82.25;99686.28;5062007;28;20031;-70
2022/03/29 04:09:44;;;;;;;57.63;24.65;;;;;;;6.39;82.54;99688.41;5064332;28;20028;-70
2022/03/29 04:12:10;;;;;;;50.55;24.50;;;;;;;6.43;82.48;99681.25;5066112;28;20047;-72
2022/03/29 04:14:38;;;;;;;50.38;24.75;;;;;;;6.44;82.80;99686.38;5066174;28;20041;-70
2022/03/29 04:17:04;;;;;;;51.20;24.40;;;;;;;6.48;82.57;99679.22;5057340;28;20406;-73
2022/03/29 04:19:30;;;;;;;59.13;25.13;;;;;;;6.41;82.29;99689.16;5050872;28;20075;-71
2022/03/29 04:21:55;;;;;;;53.45;23.98;;;;;;;6.24;83.28;99679.75;5041773;28;20500;-70
2022/03/29 04:24:21;;;;;;;55.95;23.95;;;;;;;6.20;83.17;99691.25;5045917;28;20041;-69
2022/03/29 04:26:47;;;;;;;50.05;23.90;;;;;;;6.18;83.02;99684.47;5049221;28;20045;-71
2022/03/29 04:29:12;;;;;;;55.30;24.00;;;;;;;6.20;82.33;99673.03;5049080;28;20040;-73
2022/03/29 04:31:38;;;;;;;48.30;22.02;;;;;;;6.27;82.67;99670.94;5050340;28;20399;-74
2022/03/29 04:34:05;;;;;;;49.67;23.70;;;;;;;6.29;82.87;99674.25;5050052;28;20039;-69
2022/03/29 04:36:30;;;;;;;65.15;25.25;;;;;;;6.22;83.70;99678.16;5050399;28;20033;-70
2022/03/29 04:38:57;;;;;;;54.10;24.23;;;;;;;6.10;83.44;99668.47;5050347;28;20072;-70
2022/03/29 04:41:26;;;;;;;55.40;26.50;;;;;;;6.10;83.72;99671.91;5050937;28;20041;-71
2022/03/29 04:43:51;;;;;;;74.10;27.10;;;;;;;6.10;83.46;99666.69;5047553;28;20045;-70
2022/03/29 04:46:17;;;;;;;64.22;27.85;;;;;;;5.98;83.40;99670.84;5050716;28;20112;-70
2022/03/29 04:48:42;;;;;;;63.78;28.58;;;;;;;5.95;83.85;99678.00;5050460;28;20036;-71
2022/03/29 04:51:08;;;;;;;66.28;29.63;;;;;;;5.85;84.31;99669.00;5050755;28;20033;-68
2022/03/29 04:53:33;;;;;;;63.78;29.23;;;;;;;5.90;84.33;99669.59;5050262;28;20095;-70
2022/03/29 04:55:59;;;;;;;67.20;29.88;;;;;;;5.90;84.12;99673.03;5046535;28;20036;-69
2022/03/29 04:58:25;;;;;;;64.30;29.77;;;;;;;5.98;85.04;99672.63;5012849;28;20048;-71
2022/03/29 05:00:51;;;;;;;67.80;30.10;;;;;;;5.99;84.00;99669.09;5042846;28;20025;-69
2022/03/29 05:03:16;;;;;;;63.97;29.92;;;;;;;6.02;83.28;99680.16;5049882;28;20041;-70
2022/03/29 05:05:42;;;;;;;70.43;30.02;;;;;;;5.99;83.29;99684.69;5048442;28;20041;-69
2022/03/29 05:08:07;;;;;;;70.05;31.98;;;;;;;5.89;83.16;99680.91;5048385;28;20116;-70
2022/03/29 05:10:33;;;;;;;76.03;31.67;;;;;;;5.79;84.16;99688.41;5049904;28;20032;-72
2022/03/29 05:12:58;;;;;;;84.38;32.67;;;;;;;5.80;83.64;99695.28;5064411;28;20071;-70
2022/03/29 05:15:23;;;;;;;78.68;33.28;;;;;;;5.77;84.21;99685.06;5048059;28;20029;-70
2022/03/29 05:17:49;;;;;;;81.25;34.28;;;;;;;5.84;84.13;99694.19;5039148;28;20033;-70
2022/03/29 05:20:16;;;;;;;72.43;32.53;;;;;;;5.81;84.66;99694.34;5012799;28;20067;-71
2022/03/29 05:22:43;;;;;;;72.63;32.08;;;;;;;5.92;84.24;99688.53;5049405;28;20028;-69
2022/03/29 05:25:08;;;;;;;72.80;31.67;;;;;;;5.97;83.54;99691.75;5047607;28;20025;-70
2022/03/29 05:27:34;;;;;;;65.65;29.88;;;;;;;5.98;83.08;99688.25;5049618;28;20457;-71
2022/03/29 05:29:59;;;;;;;74.25;30.75;;;;;;;5.91;83.49;99687.72;5048649;28;20356;-68
2022/03/29 05:32:24;;;;;;;64.88;28.88;;;;;;;5.92;83.29;99689.41;5061645;28;20140;-71
2022/03/29 05:34:50;;;;;;;70.28;29.00;;;;;;;5.99;83.24;99685.53;5050333;28;20148;-70
2022/03/29 05:37:15;;;;;;;60.55;28.65;;;;;;;5.96;83.17;99706.53;5049714;28;20056;-70
2022/03/29 05:39:43;;;;;;;52.10;25.25;;;;;;;5.89;83.60;99694.75;5049608;28;20083;-69
2022/03/29 05:42:10;;;;;;;69.57;27.52;;;;;;;5.81;83.93;99699.56;5051364;28;20080;-70
2022/03/29 05:44:37;;;;;;;62.30;30.00;;;;;;;5.74;84.82;99706.03;5048502;28;20049;-69
2022/03/29 05:49:46;;;;;;;64.43;29.85;;;;;;;5.65;85.09;99701.38;5048990;28;20055;-70
2022/03/29 05:52:12;;;;;;;73.70;32.67;;;;;;;5.68;85.29;99704.63;5050206;28;20452;-67
2022/03/29 05:54:39;;;;;;;71.57;31.83;;;;;;;5.74;85.04;99706.03;5048456;28;20490;-68
2022/03/29 05:57:05;;;;;;;79.15;30.98;;;;;;;5.75;85.53;99708.56;5050121;28;20494;-71
2022/03/29 05:59:30;;;;;;;72.72;32.10;;;;;;;5.82;84.47;99711.63;5047295;28;20040;-70
2022/03/29 06:01:57;;;;;;;69.88;31.67;;;;;;;5.82;84.33;99715.09;5047780;28;20128;-70
2022/03/29 06:04:25;;;;;;;79.05;34.30;;;;;;;5.74;84.58;99711.25;5047778;28;20021;-70
2022/03/29 06:06:50;;;;;;;81.43;35.53;;;;;;;5.70;85.07;99710.56;5050150;28;20062;-70
2022/03/29 06:09:16;;;;;;;77.80;34.00;;;;;;;5.76;85.19;99712.00;5049019;28;20544;-69
2022/03/29 06:11:41;;;;;;;77.50;35.05;;;;;;;5.81;85.25;99713.41;5049427;28;20030;-68
2022/03/29 06:14:06;;;;;;;82.50;34.90;;;;;;;5.79;85.06;99709.22;5030465;28;20644;-70
2022/03/29 06:16:32;;;;;;;80.95;34.00;;;;;;;5.79;85.44;99715.28;5047945;28;20023;-68
2022/03/29 06:18:57;;;;;;;78.18;34.58;;;;;;;5.81;85.04;99710.81;5048121;28;20032;-70
2022/03/29 06:21:24;;;;;;;80.20;34.28;;;;;;;5.87;85.06;99711.41;5049659;28;20090;-71
2022/03/29 06:23:50;;;;;;;72.60;33.17;;;;;;;5.88;85.13;99710.47;5047801;28;20029;-71
2022/03/29 06:26:15;;;;;;;83.88;36.53;;;;;;;5.85;85.09;99708.03;5048659;28;20624;-70
2022/03/29 06:28:42;;;;;;;84.13;32.97;;;;;;;5.83;85.57;99711.56;5049544;28;20035;-69
2022/03/29 06:31:07;;;;;;;71.60;33.08;;;;;;;5.93;85.44;99704.13;5047391;28;20036;-70
2022/03/29 06:33:33;;;;;;;85.75;33.83;;;;;;;6.02;84.94;99706.19;5047018;28;20687;-69
2022/03/29 06:35:58;;;;;;;80.43;33.63;;;;;;;6.05;85.07;99699.97;5041941;28;20040;-69
2022/03/29 06:38:23;;;;;;;80.43;33.80;;;;;;;6.11;84.54;99696.16;5050489;28;20485;-70
2022/03/29 06:40:50;;;;;;;74.78;32.30;;;;;;;6.16;84.27;99707.16;5049711;28;20087;-70
2022/03/29 06:43:15;;;;;;;79.15;31.83;;;;;;;6.17;84.19;99706.22;5048573;28;20017;-70
2022/03/29 06:45:41;;;;;;;62.92;30.17;;;;;;;6.07;83.17;99706.75;5047430;28;20025;-69
2022/03/29 06:48:07;;;;;;;81.20;32.28;;;;;;;6.11;84.00;99696.16;5048976;28;20048;-69
2022/03/29 06:50:33;;;;;;;88.88;36.05;;;;;;;6.08;83.95;99699.75;5047057;28;20032;-70
2022/03/29 06:52:59;;;;;;;77.88;34.17;;;;;;;6.13;83.39;99691.72;5047683;28;20063;-70
2022/03/29 06:55:26;;;;;;;76.65;34.08;;;;;;;6.08;84.04;99694.56;5031300;28;20020;-71
2022/03/29 06:57:51;;;;;;;76.22;32.90;;;;;;;6.21;83.04;99690.31;5048599;28;20039;-69
2022/03/29 07:00:16;;;;;;;76.75;33.20;;;;;;;6.29;82.36;99687.28;5048221;28;20116;-70
2022/03/29 07:02:42;;;;;;;79.18;33.13;;;;;;;6.40;82.22;99690.06;5047935;28;20060;-69
2022/03/29 07:05:08;;;;;;;71.57;30.05;;;;;;;6.37;81.51;99685.03;5047362;28;20051;-69
2022/03/29 07:07:34;;;;;;;84.70;31.15;;;;;;;6.38;81.89;99691.09;5047824;28;20092;-69
2022/03/29 07:12:53;;;;;;;88.55;33.08;;;;;;;6.38;81.42;99686.75;5049046;28;20036;-69
2022/03/29 07:15:19;;;;;;;70.57;32.17;;;;;;;6.36;81.81;99687.75;5048920;28;20040;-70
2022/03/29 07:17:45;;;;;;;67.60;29.42;;;;;;;6.42;81.56;99684.81;5046990;28;20052;-69
2022/03/29 07:20:12;;;;;;;68.40;30.48;;;;;;;6.52;81.58;99680.69;5047911;28;20048;-69
2022/03/29 07:22:37;;;;;;;74.75;30.27;;;;;;;6.51;81.13;99679.03;5047274;28;20025;-68
2022/03/29 07:25:04;;;;;;;70.95;31.73;;;;;;;6.57;80.42;99683.88;5046064;28;20082;-69
2022/03/29 07:27:30;;;;;;;72.18;28.77;;;;;;;6.50;81.69;99688.63;5046254;28;20030;-68
2022/03/29 07:29:57;;;;;;;75.22;31.70;;;;;;;6.52;80.94;99685.91;5048523;28;20033;-70
2022/03/29 07:32:22;;;;;;;81.05;32.05;;;;;;;6.49;81.55;99684.34;5048537;28;20040;-69
2022/03/29 07:34:47;;;;;;;71.93;30.27;;;;;;;6.60;81.24;99682.84;5043804;28;20086;-69
2022/03/29 07:37:13;;;;;;;80.22;31.45;;;;;;;6.55;80.77;99689.16;5052955;28;20181;-69
2022/03/29 07:39:40;;;;;;;71.60;30.48;;;;;;;6.58;80.68;99688.16;5054326;28;20040;-70
2022/03/29 07:42:06;;;;;;;77.45;32.75;;;;;;;6.51;80.97;99687.66;5060737;28;20033;-69
2022/03/29 07:44:31;;;;;;;71.88;32.53;;;;;;;6.49;81.27;99679.13;5073308;28;20009;-70
2022/03/29 07:46:57;;;;;;;75.13;32.28;;;;;;;6.49;80.78;99678.31;5064315;28;20582;-68
2022/03/29 07:49:22;;;;;;;75.85;32.35;;;;;;;6.60;81.04;99683.69;5057047;28;20494;-70
2022/03/29 07:51:47;;;;;;;89.63;34.88;;;;;;;6.67;80.87;99678.94;5049727;28;20013;-70
2022/03/29 07:54:13;;;;;;;84.82;35.05;;;;;;;6.79;79.96;99680.81;5049474;28;20048;-69
2022/03/29 07:56:39;;;;;;;76.35;31.25;;;;;;;6.80;79.89;99685.09;5048696;28;20025;-68
2022/03/29 07:59:04;;;;;;;83.97;32.33;;;;;;;6.70;79.87;99691.78;5048713;28;20430;-72
2022/03/29 08:01:29;;;;;;;83.97;33.65;;;;;;;6.76;80.72;99687.03;5045999;28;20021;-69
2022/03/29 08:03:55;;;;;;;75.43;34.20;;;;;;;6.73;80.25;99676.81;5047036;28;20423;-71
2022/03/29 08:06:20;;;;;;;78.55;34.42;;;;;;;6.73;79.92;99689.00;5046869;28;20128;-70
2022/03/29 08:08:45;;;;;;;89.00;33.35;;;;;;;6.76;79.61;99681.81;5047457;28;20033;-70
2022/03/29 08:11:11;;;;;;;83.55;32.97;;;;;;;6.91;79.76;99679.22;5047711;28;20196;-71
2022/03/29 08:13:37;;;;;;;93.57;34.95;;;;;;;7.09;78.83;99682.47;5011455;28;20033;-71
2022/03/29 08:16:03;;;;;;;81.97;32.00;;;;;;;7.06;76.85;99687.84;5044180;28;20057;-70
2022/03/29 08:18:29;;;;;;;68.45;28.73;;;;;;;7.12;77.16;99677.03;5045343;28;20037;-71
2022/03/29 08:20:54;;;;;;;72.60;29.45;;;;;;;7.26;75.74;99674.41;5047092;28;20041;-70
2022/03/29 08:23:20;;;;;;;74.75;29.38;;;;;;;7.33;75.85;99674.84;5050815;28;20891;-70
2022/03/29 08:25:46;;;;;;;72.60;29.38;;;;;;;7.33;75.25;99680.06;5054428;28;20116;-71
2022/03/29 08:28:13;;;;;;;75.97;29.73;;;;;;;7.13;76.02;99679.56;5052200;28;20032;-68
2022/03/29 08:30:38;;;;;;;70.45;30.85;;;;;;;7.10;76.18;99686.72;5053093;28;20036;-69
2022/03/29 08:33:04;;;;;;;67.40;28.60;;;;;;;7.25;75.53;99677.94;5046958;28;20100;-69
2022/03/29 08:35:31;;;;;;;80.68;29.58;;;;;;;7.40;75.58;99666.53;5041384;28;20032;-70
2022/03/29 08:37:56;;;;;;;74.55;29.27;;;;;;;7.42;75.96;99676.88;5048904;28;20629;-71
2022/03/29 08:40:25;;;;;;;70.10;29.17;;;;;;;7.51;75.09;99676.28;5051386;28;20032;-69
2022/03/29 08:42:54;;;;;;;73.43;30.88;;;;;;;7.44;74.76;99683.66;5051766;28;20410;-70
2022/03/29 08:45:25;;;;;;;76.55;29.05;;;;;;;7.40;75.14;99673.53;5048879;28;20041;-71
2022/03/29 08:47:53;;;;;;;78.28;32.50;;;;;;;7.50;75.44;99665.03;5050903;28;20037;-68
2022/03/29 08:50:19;;;;;;;75.93;28.52;;;;;;;7.56;74.14;99663.78;5050014;28;20366;-70
2022/03/29 08:52:46;;;;;;;71.32;28.70;;;;;;;7.72;73.97;99663.63;5049453;28;20033;-70
2022/03/29 08:55:11;;;;;;;64.95;28.88;;;;;;;7.70;74.10;99660.28;5050087;28;20029;-71
2022/03/29 08:57:38;;;;;;;69.72;28.52;;;;;;;7.82;73.69;99658.63;5052312;28;20640;-70
2022/03/29 09:00:06;;;;;;;70.47;29.25;;;;;;;7.89;72.91;99659.91;5049145;28;20529;-70
2022/03/29 09:02:36;;;;;;;73.05;30.45;;;;;;;7.94;73.08;99660.47;5050486;28;20064;-72
2022/03/29 09:05:12;;;;;;;73.80;29.95;;;;;;;7.93;73.51;99656.97;5049239;28;20045;-70
2022/03/29 09:08:12;;;;;;;69.15;29.42;;;;;;;8.04;73.06;99658.88;5050040;28;20017;-70
2022/03/29 09:10:50;;;;;;;71.22;30.42;;;;;;;7.75;73.17;99650.41;5030358;28;20080;-70
2022/03/29 09:13:24;;;;;;;65.70;30.15;;;;;;;7.84;73.00;99651.56;5033235;28;20032;-70
2022/03/29 09:15:51;;;;;;;78.18;30.50;;;;;;;7.92;73.40;99652.72;5050452;28;20452;-70
2022/03/29 09:18:17;;;;;;;78.95;29.52;;;;;;;7.86;73.12;99657.50;5050825;28;20041;-70
2022/03/29 09:20:45;;;;;;;68.80;30.73;;;;;;;7.92;73.43;99651.88;5049832;28;20029;-69
2022/03/29 09:23:19;;;;;;;71.10;30.27;;;;;;;7.84;72.93;99655.00;5047821;28;20075;-69
2022/03/29 09:25:49;;;;;;;77.95;32.13;;;;;;;8.00;73.04;99647.81;5052050;28;20040;-70
2022/03/29 09:28:16;;;;;;;70.50;29.10;;;;;;;8.07;72.05;99650.03;5050745;28;20478;-68
2022/03/29 09:30:48;;;;;;;71.15;29.88;;;;;;;8.13;72.03;99645.22;5048991;28;20041;-70
2022/03/29 09:33:20;;;;;;;70.97;28.77;;;;;;;8.23;72.25;99648.03;5049665;28;20037;-69
2022/03/29 09:36:07;;;;;;;69.68;29.90;;;;;;;8.19;72.09;99644.84;5045384;28;20021;-69
2022/03/29 09:38:47;;;;;;;77.53;31.55;;;;;;;8.31;71.65;99647.56;5045986;28;20111;-70
2022/03/29 09:41:32;;;;;;;70.80;29.42;;;;;;;8.68;70.49;99640.66;5049950;28;20041;-70
2022/03/29 09:44:06;;;;;;;63.92;28.50;;;;;;;8.99;69.84;99630.66;5048926;28;20033;-70
2022/03/29 09:46:55;;;;;;;72.45;29.67;;;;;;;9.07;68.79;99630.94;5050468;28;20020;-70
2022/03/29 09:49:22;;;;;;;71.25;28.45;;;;;;;9.00;68.83;99630.53;5049076;28;20482;-70
2022/03/29 09:52:08;;;;;;;69.03;28.65;;;;;;;9.19;68.00;99624.81;5051115;28;20596;-69
2022/03/29 09:54:33;;;;;;;74.85;29.13;;;;;;;9.49;66.93;99624.38;5043883;28;20560;-70
2022/03/29 09:56:59;;;;;;;63.63;28.73;;;;;;;9.53;66.24;99618.00;5048911;28;20036;-71
2022/03/29 09:59:24;;;;;;;68.40;28.48;;;;;;;9.39;66.31;99620.78;5049330;28;20040;-70
2022/03/29 10:01:57;;;;;;;68.93;28.98;;;;;;;9.12;66.83;99627.06;5049135;28;20039;-71
2022/03/29 10:04:25;;;;;;;68.10;29.65;;;;;;;9.20;66.86;99616.06;5047148;28;20189;-71
2022/03/29 10:06:55;;;;;;;70.63;30.45;;;;;;;9.37;66.40;99607.81;5048994;28;20032;-69
2022/03/29 10:09:27;;;;;;;59.58;27.02;;;;;;;9.31;66.76;99615.28;5049942;28;20160;-69
2022/03/29 10:11:58;;;;;;;74.90;29.05;;;;;;;9.47;65.97;99613.22;5049732;28;20041;-70
2022/03/29 10:14:25;;;;;;;75.53;29.08;;;;;;;9.45;65.09;99615.09;5046489;28;20037;-69
2022/03/29 10:16:55;;;;;;;66.47;27.55;;;;;;;9.48;64.94;99608.81;5047009;28;20037;-70
2022/03/29 10:19:21;;;;;;;75.50;30.17;;;;;;;9.72;65.69;99607.00;5048850;28;20095;-70
2022/03/29 10:21:47;;;;;;;77.45;32.33;;;;;;;9.56;65.73;99607.28;5049397;28;20060;-70
2022/03/29 10:24:15;;;;;;;76.88;30.52;;;;;;;9.62;65.75;99600.78;5047211;28;20065;-70
2022/03/29 10:26:42;;;;;;;76.80;33.30;;;;;;;9.80;64.72;99598.56;5048644;28;20099;-68
2022/03/29 10:29:09;;;;;;;74.50;30.55;;;;;;;9.72;65.16;99599.16;5046498;28;20028;-70
2022/03/29 10:31:40;;;;;;;70.57;31.38;;;;;;;9.83;64.45;99600.97;5048475;28;20036;-69
2022/03/29 10:34:17;;;;;;;79.00;31.70;;;;;;;9.96;63.84;99593.00;5048225;28;20021;-69
2022/03/29 10:37:03;;;;;;;71.18;30.55;;;;;;;10.03;63.95;99592.44;5048009;28;20033;-70
2022/03/29 10:40:05;;;;;;;79.85;32.53;;;;;;;10.15;63.67;99588.03;5041031;28;20048;-70
2022/03/29 10:42:41;;;;;;;95.72;35.78;;;;;;;10.25;63.22;99590.81;5034281;28;20065;-69
2022/03/29 10:45:06;;;;;;;95.80;39.08;;;;;;;10.21;63.78;99586.75;5047319;28;20099;-69
2022/03/29 10:47:33;;;;;;;102.38;35.47;;;;;;;10.15;63.32;99580.19;5050216;28;20445;-69
2022/03/29 10:50:00;;;;;;;101.95;40.90;;;;;;;10.07;62.63;99572.06;5048258;28;20112;-70
2022/03/29 10:52:25;;;;;;;101.20;39.25;;;;;;;10.09;62.72;99578.06;5051249;28;20021;-69
2022/03/29 10:55:11;;;;;;;104.20;40.55;;;;;;;10.16;62.37;99574.00;5047726;28;20116;-69
2022/03/29 10:57:37;;;;;;;127.25;49.05;;;;;;;10.07;63.37;99569.47;5041731;28;20037;-70
2022/03/29 11:00:10;;;;;;;131.95;54.63;;;;;;;10.23;62.04;99559.47;5045841;28;20037;-70
2022/03/29 11:02:36;;;;;;;115.65;49.35;;;;;;;10.38;60.83;99560.94;5049068;28;20128;-69
2022/03/29 11:05:10;;;;;;;135.45;51.33;;;;;;;10.23;60.90;99562.06;5032058;28;20037;-72
2022/03/29 11:07:38;;;;;;;122.57;50.88;;;;;;;10.27;60.99;99565.31;5048685;28;20467;-71
2022/03/29 11:10:09;;;;;;;136.68;54.97;;;;;;;10.43;60.65;99562.38;5051749;28;20045;-70
2022/03/29 11:12:39;;;;;;;131.10;52.40;;;;;;;10.36;60.17;99556.78;5048655;28;20044;-71
2022/03/29 11:15:25;;;;;;;121.70;52.50;;;;;;;10.21;60.47;99553.53;5047175;28;20041;-70
2022/03/29 11:17:57;;;;;;;120.38;52.22;;;;;;;10.21;60.91;99550.91;5030742;28;20503;-71
2022/03/29 11:20:32;;;;;;;133.55;56.38;;;;;;;10.28;60.58;99546.88;5047818;28;20045;-71
2022/03/29 11:23:08;;;;;;;136.57;57.53;;;;;;;10.60;60.11;99533.03;5049799;28;20060;-70
2022/03/29 11:25:52;;;;;;;133.63;55.08;;;;;;;10.52;59.60;99523.16;5044589;28;20021;-68
2022/03/29 11:28:18;;;;;;;130.73;54.22;;;;;;;10.45;60.32;99521.97;5049667;28;20021;-70
2022/03/29 11:30:44;;;;;;;134.63;55.33;;;;;;;10.38;60.08;99523.41;5048393;28;20029;-70
2022/03/29 11:33:10;;;;;;;138.77;58.00;;;;;;;10.24;60.29;99524.47;5048260;28;20098;-68